Time;durP1;ratioP1;P1;durP2;ratioP2;P2;SDS_P1;SDS_P2;PMS_P1;PMS_P2;Temp;Humidity;BMP_temperature;BMP_pressure;BME280_temperature;BME280_humidity;BME280_pressure;Samples;Min_cycle;Max_cycle;Signal;HPM_P1;HPM_P2
2022/03/24 00:00:39;;;;;;;5.03;4.40;;;19.70;30.30;;;;;;5147974;27;47282;-21
2022/03/24 00:03:07;;;;;;;6.60;4.85;;;19.70;30.30;;;;;;5147835;27;47967;-21
2022/03/24 00:05:33;;;;;;;6.53;4.95;;;19.70;30.40;;;;;;5147610;27;47112;-22
2022/03/24 00:08:00;;;;;;;7.07;5.22;;;19.70;30.40;;;;;;5147596;27;46774;-21
2022/03/24 00:10:27;;;;;;;6.65;5.32;;;19.70;30.40;;;;;;5148106;27;47460;-21
2022/03/24 00:12:56;;;;;;;5.13;4.45;;;19.70;30.40;;;;;;5147116;27;48400;-21
2022/03/24 00:15:22;;;;;;;7.78;4.88;;;19.70;30.50;;;;;;5147475;27;47509;-21
2022/03/24 00:17:49;;;;;;;7.57;4.82;;;19.70;30.50;;;;;;5147715;27;46864;-21
2022/03/24 00:20:16;;;;;;;6.57;4.72;;;19.70;30.50;;;;;;5147650;27;46936;-20
2022/03/24 00:22:43;;;;;;;5.57;4.88;;;19.60;30.50;;;;;;5147808;27;48355;-21
2022/03/24 00:25:11;;;;;;;6.03;4.70;;;19.60;30.50;;;;;;5147229;27;47406;-21
2022/03/24 00:27:38;;;;;;;5.03;4.50;;;19.60;30.50;;;;;;5148054;27;46921;-21
2022/03/24 00:30:08;;;;;;;5.57;4.57;;;19.60;30.50;;;;;;5147489;27;46879;-21
2022/03/24 00:32:35;;;;;;;5.63;4.80;;;19.60;30.60;;;;;;5147485;27;48382;-22
2022/03/24 00:35:02;;;;;;;5.25;4.47;;;19.50;30.60;;;;;;5147093;27;46986;-22
2022/03/24 00:37:28;;;;;;;6.68;4.78;;;19.50;30.70;;;;;;5147370;27;47029;-22
2022/03/24 00:39:55;;;;;;;5.55;5.05;;;19.50;30.80;;;;;;5147280;27;47092;-22
2022/03/24 00:42:22;;;;;;;5.38;4.85;;;19.50;30.70;;;;;;5147173;27;48643;-21
2022/03/24 00:44:49;;;;;;;4.95;4.50;;;19.40;30.70;;;;;;5146848;27;47142;-21
2022/03/24 00:47:17;;;;;;;7.18;4.80;;;19.40;30.70;;;;;;5147399;27;46901;-21
2022/03/24 00:49:44;;;;;;;6.28;5.00;;;19.40;30.70;;;;;;5147321;27;47323;-21
2022/03/24 00:52:11;;;;;;;7.20;5.15;;;19.40;30.70;;;;;;5147243;27;48077;-21
2022/03/24 00:54:38;;;;;;;6.18;4.80;;;19.40;30.70;;;;;;5147097;27;47252;-22
2022/03/24 00:57:06;;;;;;;5.53;4.63;;;19.40;30.70;;;;;;5147043;27;46803;-22
2022/03/24 00:59:33;;;;;;;4.90;4.40;;;19.40;30.80;;;;;;5147056;27;46823;-21
2022/03/24 01:02:00;;;;;;;6.10;4.70;;;19.40;30.80;;;;;;5147261;27;48897;-21
2022/03/24 01:04:30;;;;;;;5.60;4.68;;;19.40;30.80;;;;;;5149299;27;46931;-22
2022/03/24 01:06:56;;;;;;;7.20;5.20;;;19.40;30.80;;;;;;5150792;27;46882;-21
2022/03/24 01:09:23;;;;;;;5.25;4.75;;;19.30;30.80;;;;;;5150397;27;46901;-21
2022/03/24 01:11:51;;;;;;;5.80;4.30;;;19.30;30.80;;;;;;5150745;27;48148;-21
2022/03/24 01:14:18;;;;;;;5.97;5.00;;;19.30;30.80;;;;;;5150028;27;46908;-21
2022/03/24 01:16:44;;;;;;;6.40;4.60;;;19.30;30.80;;;;;;5150810;27;46910;-22
2022/03/24 01:19:12;;;;;;;4.93;4.28;;;19.30;30.80;;;;;;5150709;27;46872;-22
2022/03/24 01:21:41;;;;;;;5.45;4.47;;;19.30;30.80;;;;;;5150469;27;46863;-21
2022/03/24 01:24:08;;;;;;;5.90;4.80;;;19.20;30.80;;;;;;5150128;27;47067;-21
2022/03/24 01:26:35;;;;;;;5.30;4.80;;;19.20;30.80;;;;;;5150306;27;46965;-21
2022/03/24 01:29:01;;;;;;;5.95;4.43;;;19.20;30.70;;;;;;5150394;27;46915;-21
2022/03/24 01:31:28;;;;;;;6.47;4.55;;;19.20;30.80;;;;;;5150498;27;49116;-21
2022/03/24 01:33:55;;;;;;;8.25;4.55;;;19.20;30.80;;;;;;5150290;27;46834;-21
2022/03/24 01:36:21;;;;;;;4.80;4.22;;;19.20;30.80;;;;;;5150077;27;46979;-21
2022/03/24 01:38:50;;;;;;;5.63;4.68;;;19.10;30.80;;;;;;5150046;27;46882;-21
2022/03/24 01:41:19;;;;;;;5.30;4.50;;;19.10;30.80;;;;;;5150252;27;48092;-20
2022/03/24 01:43:46;;;;;;;5.60;4.55;;;19.10;30.80;;;;;;5150057;27;46900;-21
2022/03/24 01:46:13;;;;;;;6.25;4.70;;;19.10;30.80;;;;;;5150073;27;46868;-21
2022/03/24 01:48:40;;;;;;;4.93;4.45;;;19.10;30.80;;;;;;5150286;27;47281;-21
2022/03/24 01:51:07;;;;;;;4.43;4.03;;;19.10;31.00;;;;;;5150028;27;49187;-21
2022/03/24 01:53:34;;;;;;;5.13;4.60;;;19.10;31.00;;;;;;5149406;27;46880;-21
2022/03/24 01:56:03;;;;;;;5.32;4.70;;;19.10;31.00;;;;;;5150127;27;46885;-21
2022/03/24 01:58:30;;;;;;;5.68;4.57;;;19.10;31.00;;;;;;5149894;27;46899;-21
2022/03/24 02:01:01;;;;;;;5.85;4.60;;;19.10;31.00;;;;;;5149794;27;48101;-21
2022/03/24 02:03:28;;;;;;;5.32;4.47;;;19.00;31.40;;;;;;5149551;27;47015;-21
2022/03/24 02:05:54;;;;;;;5.40;4.90;;;19.00;30.90;;;;;;5149940;27;46810;-22
2022/03/24 02:08:21;;;;;;;5.28;4.38;;;19.00;31.00;;;;;;5149967;27;46951;-21
2022/03/24 02:10:48;;;;;;;6.32;4.38;;;19.00;30.90;;;;;;5149832;27;48825;-22
2022/03/24 02:13:16;;;;;;;6.10;4.68;;;19.00;30.90;;;;;;5149344;27;46936;-22
2022/03/24 02:15:43;;;;;;;6.85;4.38;;;19.00;31.00;;;;;;5148765;27;46766;-22
2022/03/24 02:18:12;;;;;;;4.90;4.45;;;19.00;31.00;;;;;;5149890;27;46889;-21
2022/03/24 02:20:39;;;;;;;5.05;4.55;;;19.00;31.00;;;;;;5149642;27;48139;-21
2022/03/24 02:23:07;;;;;;;5.30;4.60;;;18.90;30.90;;;;;;5149620;27;46933;-21
2022/03/24 02:25:35;;;;;;;4.80;4.30;;;18.90;31.00;;;;;;5149414;27;46813;-21
2022/03/24 02:28:03;;;;;;;7.18;4.80;;;18.90;31.00;;;;;;5149421;27;47302;-21
2022/03/24 02:30:30;;;;;;;5.20;4.45;;;18.90;31.00;;;;;;5149116;27;48021;-22
2022/03/24 02:32:57;;;;;;;5.25;4.75;;;18.90;31.10;;;;;;5149027;27;46820;-21
2022/03/24 02:35:24;;;;;;;5.28;4.38;;;18.90;31.00;;;;;;5149542;27;46940;-21
2022/03/24 02:37:50;;;;;;;4.65;4.25;;;18.80;31.00;;;;;;5149424;27;47312;-21
2022/03/24 02:40:19;;;;;;;5.03;4.60;;;18.80;31.10;;;;;;5149110;27;48023;-21
2022/03/24 02:42:46;;;;;;;5.45;4.63;;;18.80;31.10;;;;;;5149336;27;46892;-22
2022/03/24 02:45:13;;;;;;;4.88;4.47;;;18.80;31.00;;;;;;5148905;27;47164;-21
2022/03/24 02:47:40;;;;;;;5.60;4.28;;;18.80;31.10;;;;;;5149173;27;47128;-22
2022/03/24 02:50:09;;;;;;;4.97;4.47;;;18.80;31.10;;;;;;5149009;27;48195;-21
2022/03/24 02:52:35;;;;;;;4.78;4.20;;;18.80;31.10;;;;;;5148815;27;46908;-21
2022/03/24 02:55:02;;;;;;;4.95;4.20;;;18.80;31.10;;;;;;5148906;27;46792;-21
2022/03/24 02:57:31;;;;;;;5.32;4.53;;;18.80;31.10;;;;;;5148902;27;47296;-21
2022/03/24 02:59:58;;;;;;;4.57;4.13;;;18.80;31.80;;;;;;5148388;27;49041;-22
2022/03/24 03:02:25;;;;;;;5.05;4.13;;;18.70;31.10;;;;;;5148612;27;46980;-22
2022/03/24 03:04:53;;;;;;;5.40;4.70;;;18.70;31.10;;;;;;5148613;27;47043;-21
2022/03/24 03:07:20;;;;;;;5.22;4.30;;;18.70;31.10;;;;;;5148850;27;47371;-21
2022/03/24 03:09:47;;;;;;;5.30;4.63;;;18.70;31.20;;;;;;5148569;27;48139;-22
2022/03/24 03:12:15;;;;;;;5.22;4.72;;;18.70;31.10;;;;;;5148830;27;47403;-22
2022/03/24 03:14:43;;;;;;;5.60;4.20;;;18.70;31.10;;;;;;5148432;27;46857;-22
2022/03/24 03:17:10;;;;;;;4.93;4.43;;;18.70;31.20;;;;;;5149009;27;47412;-21
2022/03/24 03:19:39;;;;;;;5.53;4.60;;;18.70;31.10;;;;;;5148447;27;48268;-22
2022/03/24 03:22:05;;;;;;;4.97;4.50;;;18.70;31.10;;;;;;5148664;27;46897;-22
2022/03/24 03:24:32;;;;;;;5.13;4.28;;;18.70;31.10;;;;;;5148229;27;46960;-21
2022/03/24 03:26:59;;;;;;;5.03;4.53;;;18.60;31.10;;;;;;5148879;27;47115;-21
2022/03/24 03:29:26;;;;;;;4.78;4.30;;;18.60;31.10;;;;;;5148207;27;47210;-21
2022/03/24 03:31:54;;;;;;;5.20;4.65;;;18.60;31.00;;;;;;5148470;27;46911;-21
2022/03/24 03:34:24;;;;;;;5.10;4.38;;;18.60;31.00;;;;;;5148143;27;46919;-22
2022/03/24 03:36:51;;;;;;;4.82;4.10;;;18.60;31.10;;;;;;5148699;27;46891;-21
2022/03/24 03:39:18;;;;;;;4.55;4.15;;;18.60;31.10;;;;;;5147802;27;47939;-22
2022/03/24 03:41:45;;;;;;;4.70;4.22;;;18.60;31.10;;;;;;5148045;27;46822;-22
2022/03/24 03:44:12;;;;;;;5.07;4.32;;;18.60;31.10;;;;;;5147923;27;46991;-21
2022/03/24 03:46:38;;;;;;;4.45;4.05;;;18.60;31.00;;;;;;5148364;27;46880;-21
2022/03/24 03:49:08;;;;;;;4.82;4.03;;;18.50;31.00;;;;;;5148083;27;48090;-21
2022/03/24 03:51:35;;;;;;;4.60;4.15;;;18.50;31.00;;;;;;5147856;27;47427;-21
2022/03/24 03:54:01;;;;;;;4.82;4.30;;;18.50;31.10;;;;;;5147787;27;46899;-22
2022/03/24 03:56:28;;;;;;;4.38;3.97;;;18.50;31.10;;;;;;5148366;27;46902;-22
2022/03/24 03:58:55;;;;;;;4.97;4.35;;;18.50;31.10;;;;;;5147916;27;48169;-21
2022/03/24 04:01:21;;;;;;;5.47;4.07;;;18.40;31.10;;;;;;5147999;27;46824;-21
2022/03/24 04:03:48;;;;;;;4.93;3.88;;;18.40;31.20;;;;;;5147762;27;47045;-22
2022/03/24 04:06:16;;;;;;;4.80;4.30;;;18.40;31.10;;;;;;5147890;27;46939;-21
2022/03/24 04:08:43;;;;;;;4.28;3.88;;;18.40;31.20;;;;;;5147374;27;47100;-22
2022/03/24 04:11:11;;;;;;;4.82;3.90;;;18.40;31.20;;;;;;5147896;27;46845;-21
2022/03/24 04:13:38;;;;;;;4.45;4.03;;;18.40;31.80;;;;;;5147190;27;46873;-21
2022/03/24 04:16:06;;;;;;;4.70;4.30;;;18.40;31.20;;;;;;5147779;27;47179;-21
2022/03/24 04:18:32;;;;;;;4.50;4.10;;;18.40;31.20;;;;;;5147522;27;48219;-21
2022/03/24 04:20:59;;;;;;;4.10;3.70;;;18.40;31.20;;;;;;5147781;27;46812;-22
2022/03/24 04:23:27;;;;;;;4.65;4.18;;;18.40;31.30;;;;;;5147254;27;46917;-22
2022/03/24 04:25:54;;;;;;;4.75;4.35;;;18.40;31.20;;;;;;5148133;27;46847;-21
2022/03/24 04:28:21;;;;;;;4.18;3.78;;;18.30;31.20;;;;;;5147402;27;48222;-21
2022/03/24 04:30:47;;;;;;;3.78;3.47;;;18.30;31.20;;;;;;5147796;27;47463;-21
2022/03/24 04:33:15;;;;;;;4.15;3.72;;;18.30;31.30;;;;;;5147800;27;46893;-21
2022/03/24 04:35:41;;;;;;;4.97;3.83;;;18.30;31.30;;;;;;5147384;27;47265;-22
2022/03/24 04:38:08;;;;;;;4.25;3.85;;;18.30;31.30;;;;;;5146552;27;47995;-21
2022/03/24 04:40:36;;;;;;;4.13;3.70;;;18.30;31.20;;;;;;5147143;27;46956;-21
2022/03/24 04:43:04;;;;;;;3.88;3.47;;;18.30;31.20;;;;;;5147657;27;46926;-21
2022/03/24 04:45:32;;;;;;;5.53;3.88;;;18.30;31.30;;;;;;5147518;27;47247;-22
2022/03/24 04:47:59;;;;;;;4.47;3.90;;;18.30;31.30;;;;;;5147008;27;47103;-21
2022/03/24 04:50:26;;;;;;;4.15;3.75;;;18.20;31.20;;;;;;5147307;27;46854;-22
2022/03/24 04:52:53;;;;;;;4.45;4.05;;;18.20;31.30;;;;;;5147302;27;46932;-22
2022/03/24 04:55:19;;;;;;;4.00;3.60;;;18.20;31.30;;;;;;5147167;27;46821;-22
2022/03/24 04:57:47;;;;;;;4.05;3.50;;;18.20;31.30;;;;;;5146906;27;49122;-21
2022/03/24 05:00:17;;;;;;;4.65;4.25;;;18.20;31.30;;;;;;5146673;27;47051;-21
2022/03/24 05:02:44;;;;;;;4.55;4.07;;;18.20;31.40;;;;;;5147058;27;46904;-21
2022/03/24 05:05:11;;;;;;;4.47;4.07;;;18.20;31.40;;;;;;5147069;27;46757;-21
2022/03/24 05:07:38;;;;;;;3.88;3.53;;;18.20;31.40;;;;;;5147033;27;47070;-21
2022/03/24 05:10:05;;;;;;;4.45;4.05;;;18.10;31.40;;;;;;5147066;27;47099;-22
2022/03/24 05:12:32;;;;;;;4.32;3.90;;;18.10;31.40;;;;;;5146555;27;46908;-22
2022/03/24 05:15:00;;;;;;;4.22;3.72;;;18.10;31.40;;;;;;5147117;27;47298;-22
2022/03/24 05:17:27;;;;;;;4.30;3.90;;;18.10;31.50;;;;;;5146871;27;47911;-22
2022/03/24 05:19:53;;;;;;;4.13;3.67;;;18.10;31.50;;;;;;5146672;27;47243;-21
2022/03/24 05:22:20;;;;;;;3.90;3.50;;;18.10;31.50;;;;;;5146748;27;46925;-21
2022/03/24 05:24:47;;;;;;;3.65;3.35;;;18.10;31.40;;;;;;5146907;27;46855;-22
2022/03/24 05:27:14;;;;;;;4.13;3.70;;;18.10;31.50;;;;;;5146836;27;49041;-21
2022/03/24 05:29:41;;;;;;;4.30;3.63;;;18.10;31.50;;;;;;5146949;27;46922;-21
2022/03/24 05:32:09;;;;;;;3.95;3.65;;;18.10;31.50;;;;;;5146614;27;46750;-21
2022/03/24 05:34:36;;;;;;;4.43;4.03;;;18.10;31.50;;;;;;5146840;27;47118;-21
2022/03/24 05:37:03;;;;;;;4.30;3.78;;;18.00;31.40;;;;;;5146788;27;48147;-21
2022/03/24 05:39:30;;;;;;;4.13;3.65;;;18.00;31.50;;;;;;5146336;27;46875;-21
2022/03/24 05:41:57;;;;;;;4.82;4.25;;;18.00;31.40;;;;;;5146608;27;46811;-22
2022/03/24 05:44:24;;;;;;;4.57;3.90;;;18.00;31.50;;;;;;5146860;27;47311;-21
2022/03/24 05:46:51;;;;;;;4.18;3.55;;;18.00;31.50;;;;;;5146515;27;48093;-21
2022/03/24 05:49:19;;;;;;;4.25;3.60;;;18.00;31.50;;;;;;5145909;27;46886;-21
2022/03/24 05:51:46;;;;;;;3.90;3.60;;;18.00;31.50;;;;;;5149066;27;46834;-21
2022/03/24 05:54:14;;;;;;;3.42;3.13;;;18.00;31.50;;;;;;5149864;27;47304;-21
2022/03/24 05:56:40;;;;;;;4.25;3.58;;;17.90;31.50;;;;;;5149913;27;48386;-22
2022/03/24 05:59:07;;;;;;;4.45;3.50;;;17.90;31.50;;;;;;5149738;27;47022;-22
2022/03/24 06:01:34;;;;;;;5.05;3.97;;;17.90;31.50;;;;;;5149781;27;46795;-22
2022/03/24 06:04:01;;;;;;;4.00;3.55;;;17.90;31.50;;;;;;5149985;27;46938;-22
2022/03/24 06:06:29;;;;;;;4.10;3.60;;;17.90;31.50;;;;;;5149567;27;48124;-21
2022/03/24 06:08:57;;;;;;;3.72;3.35;;;17.90;31.50;;;;;;5149696;27;47146;-21
2022/03/24 06:11:24;;;;;;;4.25;3.88;;;17.90;31.60;;;;;;5149599;27;46800;-22
2022/03/24 06:13:51;;;;;;;4.10;3.53;;;17.90;31.60;;;;;;5149747;27;46823;-22
2022/03/24 06:16:18;;;;;;;3.67;3.38;;;17.90;31.50;;;;;;5149255;27;47065;-21
2022/03/24 06:18:45;;;;;;;4.40;3.38;;;17.90;31.60;;;;;;5149360;27;47581;-21
2022/03/24 06:21:12;;;;;;;3.88;3.55;;;17.90;31.50;;;;;;5149434;27;46899;-22
2022/03/24 06:23:41;;;;;;;4.03;3.63;;;17.90;31.50;;;;;;5149751;27;47111;-22
2022/03/24 06:26:08;;;;;;;4.05;3.55;;;17.90;31.50;;;;;;5149455;27;48221;-21
2022/03/24 06:28:35;;;;;;;4.07;3.67;;;17.90;31.60;;;;;;5148836;27;47062;-23
2022/03/24 06:31:02;;;;;;;3.58;3.28;;;17.90;31.60;;;;;;5148889;27;46908;-23
2022/03/24 06:33:28;;;;;;;5.18;3.80;;;17.90;31.50;;;;;;5149039;27;46837;-22
2022/03/24 06:35:55;;;;;;;4.07;3.40;;;17.90;31.50;;;;;;5149390;27;48865;-22
2022/03/24 06:38:22;;;;;;;5.28;3.40;;;17.90;31.50;;;;;;5154762;27;46952;-22
2022/03/24 06:40:50;;;;;;;4.05;3.60;;;17.90;31.50;;;;;;5148952;27;47013;-22
2022/03/24 06:43:16;;;;;;;4.22;3.83;;;17.90;31.50;;;;;;5148990;27;46876;-22
2022/03/24 06:45:43;;;;;;;3.58;3.28;;;17.90;31.50;;;;;;5148962;27;47037;-22
2022/03/24 06:48:10;;;;;;;3.88;3.30;;;17.90;31.50;;;;;;5148702;27;46984;-21
2022/03/24 06:50:37;;;;;;;4.70;3.53;;;17.90;31.50;;;;;;5148845;27;46830;-22
2022/03/24 06:53:04;;;;;;;4.45;3.78;;;17.90;31.50;;;;;;5149089;27;46946;-22
2022/03/24 06:55:31;;;;;;;4.50;3.75;;;17.90;31.50;;;;;;5148596;27;48259;-22
2022/03/24 06:57:59;;;;;;;3.90;3.33;;;17.90;31.50;;;;;;5149082;27;46933;-21
2022/03/24 07:00:26;;;;;;;4.47;3.83;;;18.00;31.50;;;;;;5148831;27;46910;-22
2022/03/24 07:02:52;;;;;;;5.05;3.50;;;18.00;31.50;;;;;;5148151;27;46767;-22
2022/03/24 07:05:19;;;;;;;4.05;3.47;;;18.00;31.50;;;;;;5151903;27;48272;-21
2022/03/24 07:07:46;;;;;;;3.85;3.45;;;18.00;31.50;;;;;;5169281;27;47221;-23
2022/03/24 07:10:13;;;;;;;4.18;3.67;;;18.00;31.50;;;;;;5162335;27;47171;-23
2022/03/24 07:12:39;;;;;;;4.03;3.63;;;18.10;31.50;;;;;;5156275;27;46892;-22
2022/03/24 07:15:10;;;;;;;3.88;3.47;;;18.10;31.50;;;;;;5169098;27;49049;-22
2022/03/24 07:17:37;;;;;;;4.10;3.58;;;18.10;32.00;;;;;;5169044;27;46966;-21
2022/03/24 07:20:04;;;;;;;4.60;3.70;;;18.10;31.40;;;;;;5153535;27;46829;-22
2022/03/24 07:22:34;;;;;;;4.15;3.35;;;18.10;31.40;;;;;;5148652;27;47217;-21
2022/03/24 07:25:02;;;;;;;3.65;3.33;;;18.10;31.30;;;;;;5151839;27;47156;-22
2022/03/24 07:27:29;;;;;;;3.80;3.30;;;18.10;31.30;;;;;;5167159;27;47187;-22
2022/03/24 07:29:56;;;;;;;4.82;3.63;;;18.10;31.30;;;;;;5167965;27;46950;-14
2022/03/24 07:32:24;;;;;;;3.97;3.35;;;18.10;31.30;;;;;;5167753;27;46902;-14
2022/03/24 07:34:50;;;;;;;5.20;4.05;;;18.20;31.30;;;;;;5167606;27;47946;-15
2022/03/24 07:37:17;;;;;;;4.00;3.60;;;18.20;31.30;;;;;;5167538;27;47084;-15
2022/03/24 07:39:44;;;;;;;4.35;3.63;;;18.20;31.30;;;;;;5167289;27;46934;-15
2022/03/24 07:42:10;;;;;;;3.92;3.58;;;18.20;31.20;;;;;;5167799;27;47095;-14
2022/03/24 07:44:37;;;;;;;4.07;3.50;;;18.20;31.20;;;;;;5168753;27;47058;-14
2022/03/24 07:47:04;;;;;;;4.43;3.83;;;18.20;31.20;;;;;;5168858;27;46993;-15
2022/03/24 07:49:32;;;;;;;5.25;3.40;;;18.20;31.20;;;;;;5169009;27;46972;-14
2022/03/24 07:51:59;;;;;;;3.97;3.58;;;18.30;31.20;;;;;;5168061;27;46913;-14
2022/03/24 07:54:40;;;;;;;4.07;3.60;;;18.30;31.20;;;;;;5167234;27;47043;-14
2022/03/24 07:57:07;;;;;;;4.75;3.75;;;18.20;31.20;;;;;;5168600;27;46998;-14
2022/03/24 07:59:34;;;;;;;3.90;3.40;;;18.20;31.20;;;;;;5167629;27;47008;-14
2022/03/24 08:02:01;;;;;;;5.63;3.80;;;18.30;31.20;;;;;;5169349;27;46938;-14
2022/03/24 08:04:28;;;;;;;4.88;3.88;;;18.30;31.20;;;;;;5168578;27;47069;-13
2022/03/24 08:06:56;;;;;;;4.25;3.67;;;18.30;31.20;;;;;;5168942;27;47038;-14
2022/03/24 08:09:23;;;;;;;4.05;3.40;;;18.30;31.10;;;;;;5168857;27;47017;-14
2022/03/24 08:11:50;;;;;;;3.85;3.45;;;18.40;30.90;;;;;;5169097;27;47279;-14
2022/03/24 08:14:16;;;;;;;5.03;4.18;;;18.40;31.10;;;;;;5167395;27;47861;-14
2022/03/24 08:16:45;;;;;;;4.30;3.90;;;18.40;31.10;;;;;;5168473;27;46950;-14
2022/03/24 08:19:14;;;;;;;4.47;3.63;;;18.40;31.20;;;;;;5168700;27;46893;-13
2022/03/24 08:21:41;;;;;;;4.90;3.50;;;18.40;31.00;;;;;;5163123;27;46991;-15
2022/03/24 08:24:10;;;;;;;4.00;3.60;;;18.40;31.10;;;;;;5167995;27;48122;-14
2022/03/24 08:26:37;;;;;;;4.15;3.75;;;18.50;31.10;;;;;;5165962;27;46994;-14
2022/03/24 08:29:04;;;;;;;4.55;4.15;;;18.50;31.10;;;;;;5166442;27;46915;-13
2022/03/24 08:31:31;;;;;;;4.32;3.92;;;18.50;31.00;;;;;;5165334;27;47048;-14
2022/03/24 08:33:58;;;;;;;5.07;4.07;;;18.60;31.00;;;;;;5166253;27;48560;-14
2022/03/24 08:36:25;;;;;;;4.50;3.85;;;18.60;31.00;;;;;;5166626;27;47260;-15
2022/03/24 08:38:52;;;;;;;4.07;3.65;;;18.60;31.00;;;;;;5166765;27;47195;-14
2022/03/24 08:41:20;;;;;;;5.07;3.70;;;18.60;31.10;;;;;;5167529;27;47169;-14
2022/03/24 08:43:46;;;;;;;4.45;3.60;;;18.60;31.00;;;;;;5167675;27;48114;-14
2022/03/24 08:46:13;;;;;;;3.72;3.30;;;18.70;31.10;;;;;;5167863;27;46758;-14
2022/03/24 08:48:40;;;;;;;4.63;3.65;;;18.70;31.10;;;;;;5168030;27;47003;-14
2022/03/24 08:51:07;;;;;;;5.13;4.45;;;18.70;31.00;;;;;;5168550;27;47122;-15
2022/03/24 08:53:33;;;;;;;5.85;4.55;;;18.70;31.00;;;;;;5167427;27;47360;-14
2022/03/24 08:56:00;;;;;;;5.28;4.78;;;18.80;31.00;;;;;;5167927;27;46980;-14
2022/03/24 08:58:28;;;;;;;6.90;4.93;;;18.80;31.00;;;;;;5167695;27;46848;-14
2022/03/24 09:00:55;;;;;;;7.63;5.72;;;18.70;30.70;;;;;;5168492;27;46913;-14
2022/03/24 09:03:22;;;;;;;8.23;6.13;;;18.70;30.70;;;;;;5167689;27;48143;-14
2022/03/24 09:05:49;;;;;;;10.85;6.70;;;18.70;30.70;;;;;;5167990;27;46890;-14
2022/03/24 09:08:16;;;;;;;8.23;6.53;;;18.70;30.60;;;;;;5167642;27;46802;-14
2022/03/24 09:10:43;;;;;;;7.45;6.60;;;18.70;30.60;;;;;;5168181;27;47156;-14
2022/03/24 09:13:10;;;;;;;10.75;7.20;;;18.70;30.60;;;;;;5166293;27;47074;-14
2022/03/24 09:15:38;;;;;;;9.45;7.75;;;18.70;31.10;;;;;;5166665;27;46901;-14
2022/03/24 09:18:05;;;;;;;9.73;7.32;;;18.60;30.30;;;;;;5166205;27;46885;-14
2022/03/24 09:20:32;;;;;;;11.18;8.20;;;18.60;30.50;;;;;;5167409;27;47169;-13
2022/03/24 09:22:59;;;;;;;12.52;8.90;;;18.60;30.50;;;;;;5167412;27;47894;-13
2022/03/24 09:25:25;;;;;;;14.70;8.57;;;18.60;30.40;;;;;;5170317;27;47004;-14
2022/03/24 09:27:52;;;;;;;12.23;8.77;;;18.50;30.40;;;;;;5171349;27;46899;-14
2022/03/24 09:30:20;;;;;;;13.82;10.13;;;18.50;30.30;;;;;;5171569;27;46919;-14
2022/03/24 09:32:48;;;;;;;13.88;10.10;;;18.40;30.10;;;;;;5171388;27;46944;-14
2022/03/24 09:35:15;;;;;;;12.30;9.38;;;18.40;30.30;;;;;;5170859;27;46854;-13
2022/03/24 09:37:42;;;;;;;15.65;10.35;;;18.40;30.60;;;;;;5171057;27;46841;-14
2022/03/24 09:40:09;;;;;;;13.90;10.30;;;18.30;30.70;;;;;;5171020;27;47389;-14
2022/03/24 09:42:36;;;;;;;12.57;10.23;;;18.30;30.50;;;;;;5170886;27;46964;-15
2022/03/24 09:45:05;;;;;;;14.95;10.38;;;18.30;30.60;;;;;;5170126;27;46831;-14
2022/03/24 09:47:32;;;;;;;11.77;9.38;;;18.30;30.50;;;;;;5171083;27;46932;-14
2022/03/24 09:50:00;;;;;;;14.20;10.15;;;18.30;30.50;;;;;;5170814;27;46892;-14
2022/03/24 09:52:27;;;;;;;12.90;9.82;;;18.30;30.50;;;;;;5170828;27;48022;-14
2022/03/24 09:54:54;;;;;;;15.23;10.02;;;18.30;30.40;;;;;;5170625;27;46908;-14
2022/03/24 09:57:21;;;;;;;16.92;10.70;;;18.30;30.40;;;;;;5170959;27;46931;-14
2022/03/24 09:59:48;;;;;;;12.82;10.25;;;18.30;30.20;;;;;;5170955;27;46894;-14
2022/03/24 10:02:15;;;;;;;14.30;10.48;;;18.30;30.20;;;;;;5170679;27;49027;-14
2022/03/24 10:04:45;;;;;;;14.50;10.50;;;18.30;30.20;;;;;;5170795;27;46991;-14
2022/03/24 10:07:14;;;;;;;15.48;10.13;;;18.30;30.20;;;;;;5170483;27;46881;-14
2022/03/24 10:09:42;;;;;;;14.10;10.55;;;18.30;30.10;;;;;;5170570;27;46886;-14
2022/03/24 10:12:09;;;;;;;14.90;11.25;;;18.40;30.00;;;;;;5170731;27;47868;-14
2022/03/24 10:14:36;;;;;;;16.52;11.80;;;18.40;30.00;;;;;;5170493;27;47440;-14
2022/03/24 10:17:07;;;;;;;16.05;11.35;;;18.30;30.40;;;;;;5170363;27;46884;-14
2022/03/24 10:19:34;;;;;;;17.85;11.77;;;18.40;30.00;;;;;;5170658;27;46877;-13
2022/03/24 10:22:07;;;;;;;19.33;11.57;;;18.40;30.00;;;;;;5170497;27;47933;-14
2022/03/24 10:24:39;;;;;;;15.88;12.23;;;18.40;30.10;;;;;;5170400;27;47396;-14
2022/03/24 10:27:06;;;;;;;14.77;11.57;;;18.50;30.00;;;;;;5170621;27;46792;-13
2022/03/24 10:29:34;;;;;;;14.20;10.90;;;18.50;30.00;;;;;;5170527;27;47285;-14
2022/03/24 10:32:02;;;;;;;21.60;13.00;;;18.60;30.00;;;;;;5169995;27;48754;-14
2022/03/24 10:34:30;;;;;;;14.57;11.30;;;18.60;29.70;;;;;;5169850;27;47213;-15
2022/03/24 10:36:57;;;;;;;25.88;13.07;;;18.60;30.10;;;;;;5169301;27;46901;-13
2022/03/24 10:39:24;;;;;;;37.95;13.90;;;18.60;31.20;;;;;;5170503;27;46926;-13
2022/03/24 10:41:52;;;;;;;23.15;14.10;;;18.70;31.30;;;;;;5165411;27;47921;-13
2022/03/24 10:44:19;;;;;;;20.70;13.65;;;18.80;30.70;;;;;;5169337;27;46953;-12
2022/03/24 10:46:46;;;;;;;19.33;12.70;;;18.80;30.30;;;;;;5169584;27;46987;-13
2022/03/24 10:49:18;;;;;;;15.63;11.88;;;19.00;31.20;;;;;;5169629;27;46910;-13
2022/03/24 10:51:45;;;;;;;15.82;12.60;;;19.10;30.20;;;;;;5169759;27;46892;-13
2022/03/24 10:54:19;;;;;;;17.98;14.00;;;19.20;29.90;;;;;;5169632;27;46879;-13
2022/03/24 10:56:46;;;;;;;22.73;12.60;;;19.20;30.00;;;;;;5169526;27;46845;-13
2022/03/24 10:59:15;;;;;;;17.13;12.35;;;19.30;30.00;;;;;;5168959;27;47240;-13
2022/03/24 11:01:42;;;;;;;18.95;13.38;;;19.40;29.90;;;;;;5166455;27;49065;-14
2022/03/24 11:04:09;;;;;;;19.02;13.63;;;19.50;29.70;;;;;;5159718;27;47382;-12
2022/03/24 11:06:36;;;;;;;21.55;13.13;;;19.50;29.50;;;;;;5168178;27;46803;-14
2022/03/24 11:09:03;;;;;;;18.58;12.82;;;19.70;29.50;;;;;;5164200;27;47358;-14
2022/03/24 11:11:30;;;;;;;17.98;13.50;;;19.70;29.30;;;;;;5166355;27;48109;-14
2022/03/24 11:13:58;;;;;;;20.33;12.82;;;19.80;28.90;;;;;;5164599;27;46990;-14
2022/03/24 11:16:29;;;;;;;19.30;13.30;;;19.90;29.00;;;;;;5166341;27;47011;-13
2022/03/24 11:18:56;;;;;;;18.77;12.80;;;19.90;28.10;;;;;;5167624;27;47007;-13
2022/03/24 11:21:25;;;;;;;16.60;12.68;;;19.90;28.00;;;;;;5168614;27;48201;-13
2022/03/24 11:23:53;;;;;;;17.90;12.32;;;20.10;28.20;;;;;;5163822;27;46917;-13
2022/03/24 11:26:21;;;;;;;16.00;11.55;;;20.20;27.90;;;;;;5165487;27;47014;-13
2022/03/24 11:28:48;;;;;;;16.92;11.50;;;20.40;28.20;;;;;;5169065;27;47238;-13
2022/03/24 11:31:16;;;;;;;19.67;11.35;;;20.60;28.10;;;;;;5164540;27;46898;-13
2022/03/24 11:33:46;;;;;;;18.00;11.40;;;20.70;27.90;;;;;;5168418;27;46900;-14
2022/03/24 11:36:13;;;;;;;18.55;11.55;;;20.90;28.50;;;;;;5160853;27;47164;-14
2022/03/24 11:38:41;;;;;;;12.55;10.40;;;21.10;28.40;;;;;;5167041;27;46940;-13
2022/03/24 11:41:13;;;;;;;14.35;10.65;;;21.20;27.90;;;;;;5168413;27;48878;-13
2022/03/24 11:43:42;;;;;;;14.52;10.10;;;21.40;27.80;;;;;;5167147;27;47068;-13
2022/03/24 11:46:11;;;;;;;15.07;11.07;;;21.50;27.60;;;;;;5168778;27;46898;-14
2022/03/24 11:48:38;;;;;;;14.55;9.85;;;21.60;27.40;;;;;;5168486;27;47277;-14
2022/03/24 11:51:07;;;;;;;13.18;10.23;;;21.70;27.70;;;;;;5168478;27;49035;-13
2022/03/24 11:53:39;;;;;;;15.88;10.70;;;21.80;27.50;;;;;;5168349;27;46738;-14
2022/03/24 11:56:16;;;;;;;19.17;11.05;;;21.90;27.30;;;;;;5168935;27;46981;-13
2022/03/24 11:59:22;;;;;;;14.20;10.52;;;22.00;27.00;;;;;;5168122;27;47243;-14
2022/03/24 12:02:08;;;;;;;14.88;10.15;;;22.10;27.10;;;;;;5167176;27;46945;-14
2022/03/24 12:04:44;;;;;;;14.02;10.65;;;22.30;26.90;;;;;;5167019;27;47435;-13
2022/03/24 12:07:14;;;;;;;16.40;11.05;;;22.40;26.60;;;;;;5168645;27;46841;-13
2022/03/24 12:09:54;;;;;;;18.02;10.68;;;22.40;26.80;;;;;;5153017;27;46976;-14
2022/03/24 12:12:21;;;;;;;26.90;11.57;;;22.50;26.50;;;;;;5156238;27;47989;-14
2022/03/24 12:14:48;;;;;;;16.95;10.55;;;22.60;26.50;;;;;;5160329;27;47111;-12
2022/03/24 12:17:17;;;;;;;18.30;9.93;;;22.70;26.80;;;;;;5155540;27;47093;-13
2022/03/24 12:19:49;;;;;;;15.98;9.40;;;22.70;26.70;;;;;;5167209;27;46937;-13
2022/03/24 12:22:45;;;;;;;20.70;9.98;;;22.80;26.60;;;;;;5151410;27;48208;-13
2022/03/24 12:25:22;;;;;;;29.63;12.52;;;22.90;26.40;;;;;;5148951;27;47018;-13
2022/03/24 12:28:09;;;;;;;21.42;11.10;;;23.00;26.00;;;;;;5150239;27;46958;-13
2022/03/24 12:30:47;;;;;;;18.77;11.68;;;22.90;26.00;;;;;;5148321;27;46990;-22
2022/03/24 12:33:15;;;;;;;27.05;13.13;;;22.90;26.10;;;;;;5157681;27;48780;-22
2022/03/24 12:35:44;;;;;;;18.17;11.07;;;23.00;26.10;;;;;;5147209;27;46758;-22
2022/03/24 12:38:47;;;;;;;18.98;11.82;;;23.00;26.20;;;;;;5147561;27;46853;-14
2022/03/24 12:41:22;;;;;;;19.38;12.38;;;23.00;26.10;;;;;;5146660;27;47158;-13
2022/03/24 12:43:53;;;;;;;16.20;12.23;;;23.10;26.00;;;;;;5167800;27;47076;-14